createdAt,value
2023-06-04T00:02:04.839Z,101157.44
2023-06-04T00:04:31.690Z,101165.88
2023-06-04T00:06:58.428Z,101156.47
2023-06-04T00:09:25.342Z,101153.44
2023-06-04T00:11:52.196Z,101146.94
2023-06-04T00:14:19.109Z,101153.66
2023-06-04T00:16:46.194Z,101145.41
2023-06-04T00:19:13.053Z,101151.28
2023-06-04T00:21:39.985Z,101139.09
2023-06-04T00:24:07.214Z,101145.06
2023-06-04T00:26:34.596Z,101144.81
2023-06-04T00:29:01.951Z,101144.69
2023-06-04T00:31:28.831Z,101142.59
2023-06-04T00:33:55.659Z,101147.19
2023-06-04T00:36:22.613Z,101149.41
2023-06-04T00:38:49.421Z,101151.63
2023-06-04T00:41:16.312Z,101148.94
2023-06-04T00:43:46.763Z,101140.81
2023-06-04T00:46:19.573Z,101151.06
2023-06-04T00:48:46.554Z,101148.25
2023-06-04T00:51:13.997Z,101151.41
2023-06-04T00:53:41.029Z,101156.38
2023-06-04T00:56:08.104Z,101156.69
2023-06-04T00:58:44.072Z,101156.94
2023-06-04T01:01:41.896Z,101153.91
2023-06-04T01:04:17.240Z,101152.34
2023-06-04T01:06:52.334Z,101145.66
2023-06-04T01:09:19.906Z,101146.25
2023-06-04T01:11:46.704Z,101155.56
2023-06-04T01:14:13.656Z,101150.72
2023-06-04T01:17:02.752Z,101153.19
2023-06-04T01:19:55.696Z,101152.25
2023-06-04T01:22:41.444Z,101142.72
2023-06-04T01:25:21.881Z,101144.06
2023-06-04T01:27:56.943Z,101142.41
2023-06-04T01:30:30.964Z,101146.75
2023-06-04T01:32:58.548Z,101143.22
2023-06-04T01:35:29.042Z,101151.53
2023-06-04T01:37:56.887Z,101151.53
2023-06-04T01:40:24.715Z,101145.41
2023-06-04T01:42:51.564Z,101144.91
2023-06-04T01:45:18.647Z,101151.13
2023-06-04T01:47:45.562Z,101136.91
2023-06-04T01:50:14.168Z,101133.13
2023-06-04T01:52:41.634Z,101132.09
2023-06-04T01:55:10.352Z,101124.28
2023-06-04T01:57:37.557Z,101119.88
2023-06-04T02:00:06.382Z,101114.63
2023-06-04T02:02:44.060Z,101121.56
2023-06-04T02:05:11.583Z,101122.41
2023-06-04T02:07:43.521Z,101107.28
2023-06-04T02:10:11.279Z,101117.63
2023-06-04T02:12:42.626Z,101114.03
2023-06-04T02:15:11.973Z,101105.72
2023-06-04T02:17:41.231Z,101103.25
2023-06-04T02:20:11.122Z,101098.78
2023-06-04T02:22:38.742Z,101097.41
2023-06-04T02:25:06.772Z,101095.03
2023-06-04T02:27:33.581Z,101098.09
2023-06-04T02:30:00.830Z,101089.44
2023-06-04T02:32:27.848Z,101092.13
2023-06-04T02:34:55.588Z,101084.84
2023-06-04T02:37:23.513Z,101087.19
2023-06-04T02:39:50.429Z,101089.72
2023-06-04T02:42:17.386Z,101086.34
2023-06-04T02:44:44.264Z,101086.13
2023-06-04T02:47:11.109Z,101090.31
2023-06-04T02:49:38.976Z,101085.25
2023-06-04T02:52:06.434Z,101101.69
2023-06-04T02:54:33.300Z,101094.81
2023-06-04T02:57:01.044Z,101098.25
2023-06-04T02:59:27.874Z,101099.59
2023-06-04T03:01:55.601Z,101097.72
2023-06-04T03:04:22.727Z,101094.88
2023-06-04T03:06:53.749Z,101105.81
2023-06-04T03:09:20.546Z,101105.41
2023-06-04T03:11:47.335Z,101115.47
2023-06-04T03:14:14.195Z,101112.75
2023-06-04T03:16:41.181Z,101108.22
2023-06-04T03:19:08.111Z,101106.19
2023-06-04T03:21:35.240Z,101107.44
2023-06-04T03:24:02.255Z,101109.47
2023-06-04T03:26:29.291Z,101106.03
2023-06-04T03:28:56.208Z,101105.28
2023-06-04T03:31:23.183Z,101111.41
2023-06-04T03:33:50.836Z,101111.22
2023-06-04T03:36:17.779Z,101106.97
2023-06-04T03:38:46.975Z,101111.22
2023-06-04T03:41:14.564Z,101111.91
2023-06-04T03:43:42.614Z,101103.38
2023-06-04T03:46:11.710Z,101108.53
2023-06-04T03:48:38.530Z,101113.63
2023-06-04T03:51:05.739Z,101116.41
2023-06-04T03:53:34.196Z,101116.56
2023-06-04T03:56:01.989Z,101107.59
2023-06-04T03:58:29.840Z,101105.28
2023-06-04T04:00:58.354Z,101114.41
2023-06-04T04:03:25.375Z,101117.69
2023-06-04T04:05:52.672Z,101110.22
2023-06-04T04:08:22.348Z,101112.94
2023-06-04T04:10:49.752Z,101112.47
2023-06-04T04:13:16.558Z,101113.28
2023-06-04T04:15:43.320Z,101116.88
2023-06-04T04:18:11.922Z,101121.34
2023-06-04T04:20:40.375Z,101116.84
2023-06-04T04:23:10.584Z,101114.47
2023-06-04T04:25:40.372Z,101111.72
2023-06-04T04:28:08.279Z,101112.72
2023-06-04T04:30:37.132Z,101114.53
2023-06-04T04:33:09.164Z,101113.56
2023-06-04T04:35:46.197Z,101114.47
2023-06-04T04:38:18.346Z,101115.03
2023-06-04T04:40:53.236Z,101110.34
2023-06-04T04:43:34.288Z,101115.91
2023-06-04T04:46:27.283Z,101117.00
2023-06-04T04:48:54.714Z,101111.00
2023-06-04T04:51:21.661Z,101105.13
2023-06-04T04:53:48.556Z,101110.97
2023-06-04T04:56:16.163Z,101121.91
2023-06-04T04:58:47.311Z,101122.88
2023-06-04T05:01:14.194Z,101113.75
2023-06-04T05:03:42.589Z,101115.41
2023-06-04T05:06:11.602Z,101117.31
2023-06-04T05:08:38.707Z,101124.72
2023-06-04T05:11:06.211Z,101130.06
2023-06-04T05:13:33.963Z,101129.84
2023-06-04T05:16:07.773Z,101132.00
2023-06-04T05:18:42.485Z,101132.44
2023-06-04T05:21:13.228Z,101132.50
2023-06-04T05:23:49.317Z,101143.78
2023-06-04T05:26:19.036Z,101141.97
2023-06-04T05:28:46.487Z,101134.72
2023-06-04T05:31:17.000Z,101140.31
2023-06-04T05:33:43.942Z,101139.63
2023-06-04T05:36:15.806Z,101135.53
2023-06-04T05:38:58.365Z,101129.31
2023-06-04T05:41:30.037Z,101127.44
2023-06-04T05:43:58.411Z,101134.09
2023-06-04T05:46:25.253Z,101132.44
2023-06-04T05:48:52.876Z,101132.13
2023-06-04T05:51:21.186Z,101130.25
2023-06-04T05:53:48.304Z,101133.53
2023-06-04T05:56:16.173Z,101140.16
2023-06-04T05:58:43.152Z,101139.53
2023-06-04T06:01:11.663Z,101140.59
2023-06-04T06:03:38.652Z,101144.50
2023-06-04T06:06:06.916Z,101150.28
2023-06-04T06:08:34.014Z,101147.75
2023-06-04T06:11:01.413Z,101138.09
2023-06-04T06:13:28.574Z,101141.97
2023-06-04T06:15:56.964Z,101145.66
2023-06-04T06:18:23.927Z,101145.81
2023-06-04T06:20:50.816Z,101149.75
2023-06-04T06:23:20.069Z,101151.91
2023-06-04T06:25:47.373Z,101148.88
2023-06-04T06:28:19.976Z,101145.03
2023-06-04T06:30:48.766Z,101148.09
2023-06-04T06:33:15.987Z,101150.97
2023-06-04T06:35:42.993Z,101159.22
2023-06-04T06:38:09.731Z,101163.31
2023-06-04T06:40:36.593Z,101153.50
2023-06-04T06:43:03.574Z,101155.53
2023-06-04T06:45:30.446Z,101160.09
2023-06-04T06:47:57.429Z,101166.97
2023-06-04T06:50:24.348Z,101162.28
2023-06-04T06:52:51.093Z,101167.06
2023-06-04T06:55:18.015Z,101167.88
2023-06-04T06:57:45.823Z,101167.13
2023-06-04T07:00:13.103Z,101159.94
2023-06-04T07:02:40.010Z,101164.09
2023-06-04T07:05:07.166Z,101166.59
2023-06-04T07:07:33.980Z,101161.72
2023-06-04T07:10:01.054Z,101173.63
2023-06-04T07:12:27.882Z,101168.69
2023-06-04T07:14:54.692Z,101165.03
2023-06-04T07:17:21.505Z,101168.47
2023-06-04T07:19:48.417Z,101174.69
2023-06-04T07:22:16.868Z,101175.16
2023-06-04T07:24:43.892Z,101176.59
2023-06-04T07:27:12.847Z,101174.53
2023-06-04T07:29:39.664Z,101171.16
2023-06-04T07:32:07.369Z,101180.19
2023-06-04T07:34:34.404Z,101183.81
2023-06-04T07:37:01.192Z,101184.78
2023-06-04T07:39:27.980Z,101186.41
2023-06-04T07:41:55.172Z,101186.97
2023-06-04T07:44:21.923Z,101183.53
2023-06-04T07:46:49.488Z,101183.78
2023-06-04T07:49:16.750Z,101195.63
2023-06-04T07:51:43.609Z,101192.72
2023-06-04T07:54:11.373Z,101184.84
2023-06-04T07:56:38.993Z,101189.72
2023-06-04T07:59:05.866Z,101196.94
2023-06-04T08:01:32.797Z,101194.38
2023-06-04T08:04:02.996Z,101196.31
2023-06-04T08:06:30.110Z,101195.44
2023-06-04T08:08:56.910Z,101195.22
2023-06-04T08:11:31.071Z,101193.94
2023-06-04T08:14:00.900Z,101195.09
2023-06-04T08:16:27.755Z,101193.34
2023-06-04T08:18:54.594Z,101200.31
2023-06-04T08:21:28.627Z,101204.28
2023-06-04T08:23:56.568Z,101203.28
2023-06-04T08:26:24.238Z,101200.50
2023-06-04T08:28:52.803Z,101202.97
2023-06-04T08:31:19.818Z,101198.72
2023-06-04T08:33:47.539Z,101202.47
2023-06-04T08:36:15.228Z,101201.00
2023-06-04T08:38:42.110Z,101203.97
2023-06-04T08:41:23.996Z,101200.47
2023-06-04T08:43:51.997Z,101199.97
2023-06-04T08:46:20.011Z,101195.69
2023-06-04T08:48:47.328Z,101205.53
2023-06-04T08:51:15.149Z,101205.69
2023-06-04T08:53:43.750Z,101201.47
2023-06-04T08:56:10.683Z,101212.47
2023-06-04T08:58:41.398Z,101204.75
2023-06-04T09:01:09.462Z,101211.88
2023-06-04T09:03:38.364Z,101208.44
2023-06-04T09:06:06.967Z,101208.75
2023-06-04T09:08:37.957Z,101204.03
2023-06-04T09:11:09.219Z,101210.38
2023-06-04T09:13:37.112Z,101203.75
2023-06-04T09:16:04.998Z,101213.16
2023-06-04T09:18:31.884Z,101219.72
2023-06-04T09:21:17.147Z,101211.56
2023-06-04T09:23:48.453Z,101205.88
2023-06-04T09:26:15.518Z,101212.09
2023-06-04T09:28:43.738Z,101210.31
2023-06-04T09:31:17.522Z,101210.69
2023-06-04T09:33:50.009Z,101212.91
2023-06-04T09:36:17.774Z,101217.56
2023-06-04T09:38:44.918Z,101210.56
2023-06-04T09:41:20.707Z,101213.69
2023-06-04T09:43:47.605Z,101213.03
2023-06-04T09:46:16.515Z,101214.47
2023-06-04T09:48:44.603Z,101209.56
2023-06-04T09:51:21.991Z,101218.00
2023-06-04T09:53:57.116Z,101216.03
2023-06-04T09:56:24.070Z,101215.97
2023-06-04T09:58:51.299Z,101208.09
2023-06-04T10:01:19.312Z,101208.66
2023-06-04T10:03:52.740Z,101211.50
2023-06-04T10:06:23.885Z,101213.69
2023-06-04T10:08:51.965Z,101220.34
2023-06-04T10:11:27.249Z,101220.75
2023-06-04T10:14:18.939Z,101220.88
2023-06-04T10:16:46.752Z,101225.88
2023-06-04T10:19:14.132Z,101222.19
2023-06-04T10:21:41.157Z,101227.97
2023-06-04T10:24:08.913Z,101226.28
2023-06-04T10:26:39.393Z,101231.31
2023-06-04T10:29:06.963Z,101229.72
2023-06-04T10:31:34.214Z,101221.94
2023-06-04T10:34:01.850Z,101220.78
2023-06-04T10:36:29.970Z,101219.53
2023-06-04T10:38:57.077Z,101227.19
2023-06-04T10:41:24.723Z,101225.09
2023-06-04T10:44:01.566Z,101227.72
2023-06-04T10:46:41.075Z,101224.19
2023-06-04T10:49:11.121Z,101218.00
2023-06-04T10:51:38.377Z,101211.38
2023-06-04T10:54:05.954Z,101217.44
2023-06-04T10:56:35.041Z,101206.88
2023-06-04T10:59:13.831Z,101211.25
2023-06-04T11:01:41.265Z,101208.78
2023-06-04T11:04:08.167Z,101210.66
2023-06-04T11:06:37.018Z,101213.50
2023-06-04T11:09:06.887Z,101213.75
2023-06-04T11:11:33.922Z,101210.13
2023-06-04T11:14:17.209Z,101215.72
2023-06-04T11:16:44.039Z,101217.09
2023-06-04T11:19:11.017Z,101208.47
2023-06-04T11:21:39.075Z,101205.22
2023-06-04T11:24:06.488Z,101202.03
2023-06-04T11:26:34.490Z,101198.31
2023-06-04T11:29:02.055Z,101192.41
2023-06-04T11:31:29.036Z,101205.03
2023-06-04T11:33:56.022Z,101196.91
2023-06-04T11:36:29.829Z,101192.75
2023-06-04T11:38:58.869Z,101195.31
2023-06-04T11:41:29.004Z,101184.78
2023-06-04T11:43:57.471Z,101197.19
2023-06-04T11:46:24.948Z,101185.72
2023-06-04T11:48:54.085Z,101182.28
2023-06-04T11:51:22.313Z,101178.44
2023-06-04T11:53:49.441Z,101179.81
2023-06-04T11:56:17.248Z,101181.91
2023-06-04T11:58:44.894Z,101176.25
2023-06-04T12:01:12.529Z,101191.69
2023-06-04T12:03:41.690Z,101192.59
2023-06-04T12:06:18.794Z,101187.44
2023-06-04T12:08:51.039Z,101185.88
2023-06-04T12:11:32.370Z,101195.78
2023-06-04T12:14:01.539Z,101193.09
2023-06-04T12:16:28.695Z,101183.03
2023-06-04T12:19:13.127Z,101180.56
2023-06-04T12:21:40.699Z,101183.28
2023-06-04T12:24:12.236Z,101179.19
2023-06-04T12:26:41.723Z,101170.84
2023-06-04T12:29:17.181Z,101174.84
2023-06-04T12:31:46.726Z,101185.53
2023-06-04T12:34:18.846Z,101182.84
2023-06-04T12:36:45.739Z,101184.59
2023-06-04T12:39:12.651Z,101184.16
2023-06-04T12:41:45.767Z,101196.28
2023-06-04T12:44:12.651Z,101198.34
2023-06-04T12:46:39.658Z,101202.03
2023-06-04T12:49:06.800Z,101203.75
2023-06-04T12:51:33.631Z,101200.59
2023-06-04T12:54:00.722Z,101203.56
2023-06-04T12:56:27.859Z,101196.38
2023-06-04T12:58:54.756Z,101200.16
2023-06-04T13:01:21.622Z,101209.22
2023-06-04T13:03:53.310Z,101199.94
2023-06-04T13:06:20.063Z,101207.69
2023-06-04T13:08:47.153Z,101207.59
2023-06-04T13:11:14.349Z,101200.03
2023-06-04T13:13:41.234Z,101203.69
2023-06-04T13:16:08.967Z,101198.22
2023-06-04T13:18:35.970Z,101189.47
2023-06-04T13:21:02.943Z,101202.75
2023-06-04T13:23:45.433Z,101205.91
2023-06-04T13:26:17.353Z,101212.09
2023-06-04T13:28:48.230Z,101220.56
2023-06-04T13:31:15.252Z,101221.78
2023-06-04T13:33:46.117Z,101227.47
2023-06-04T13:36:16.241Z,101223.78
2023-06-04T13:38:46.382Z,101225.66
2023-06-04T13:41:13.285Z,101216.94
2023-06-04T13:43:40.236Z,101226.41
2023-06-04T13:46:12.249Z,101215.94
2023-06-04T13:48:39.547Z,101227.69
2023-06-04T13:51:06.590Z,101218.16
2023-06-04T13:53:33.682Z,101204.50
2023-06-04T13:56:00.712Z,101203.38
2023-06-04T13:58:28.008Z,101207.28
2023-06-04T14:00:54.905Z,101217.72
2023-06-04T14:03:22.003Z,101221.06
2023-06-04T14:05:49.048Z,101226.06
2023-06-04T14:08:15.926Z,101226.84
2023-06-04T14:10:42.946Z,101235.56
2023-06-04T14:13:10.625Z,101239.53
2023-06-04T14:15:37.882Z,101233.22
2023-06-04T14:18:06.130Z,101236.72
2023-06-04T14:20:33.386Z,101225.47
2023-06-04T14:23:00.988Z,101224.72
2023-06-04T14:25:28.704Z,101214.59
2023-06-04T14:27:55.784Z,101217.13
2023-06-04T14:30:22.765Z,101200.22
2023-06-04T14:32:49.892Z,101205.09
2023-06-04T14:35:16.881Z,101202.47
2023-06-04T14:37:43.931Z,101199.84
2023-06-04T14:40:11.169Z,101198.75
2023-06-04T14:42:38.071Z,101199.38
2023-06-04T14:45:05.232Z,101200.69
2023-06-04T14:47:32.204Z,101202.25
2023-06-04T14:49:59.006Z,101189.75
2023-06-04T14:52:25.835Z,101191.16
2023-06-04T14:54:55.467Z,101199.63
2023-06-04T14:57:22.402Z,101201.31
2023-06-04T14:59:49.801Z,101206.69
2023-06-04T15:02:20.593Z,101204.53
2023-06-04T15:04:48.221Z,101190.72
2023-06-04T15:07:16.157Z,101183.47
2023-06-04T15:09:42.910Z,101182.78
2023-06-04T15:12:09.683Z,101172.44
2023-06-04T15:14:36.561Z,101170.22
2023-06-04T15:17:03.465Z,101163.66
2023-06-04T15:19:30.254Z,101158.41
2023-06-04T15:21:57.269Z,101152.94
2023-06-04T15:24:24.092Z,101151.75
2023-06-04T15:26:51.402Z,101145.03
2023-06-04T15:29:18.426Z,101145.38
2023-06-04T15:31:45.405Z,101153.38
2023-06-04T15:34:12.305Z,101153.94
2023-06-04T15:36:39.582Z,101172.50
2023-06-04T15:39:06.653Z,101176.22
2023-06-04T15:41:33.557Z,101181.38
2023-06-04T15:44:02.253Z,101182.34
2023-06-04T15:46:31.074Z,101174.88
2023-06-04T15:48:58.074Z,101167.97
2023-06-04T15:51:24.926Z,101175.94
2023-06-04T15:53:51.999Z,101174.81
2023-06-04T15:56:20.070Z,101174.09
2023-06-04T15:58:46.987Z,101169.88
2023-06-04T16:01:13.934Z,101160.56
2023-06-04T16:03:41.199Z,101159.44
2023-06-04T16:06:08.210Z,101154.06
2023-06-04T16:08:35.225Z,101152.34
2023-06-04T16:11:01.986Z,101160.88
2023-06-04T16:13:28.845Z,101166.25
2023-06-04T16:15:56.716Z,101180.91
2023-06-04T16:18:23.665Z,101175.88
2023-06-04T16:20:50.902Z,101174.84
2023-06-04T16:23:18.056Z,101176.50
2023-06-04T16:25:45.179Z,101173.94
2023-06-04T16:28:12.117Z,101171.81
2023-06-04T16:30:39.002Z,101173.56
2023-06-04T16:33:07.407Z,101174.00
2023-06-04T16:35:34.544Z,101170.13
2023-06-04T16:38:01.400Z,101169.25
2023-06-04T16:40:28.247Z,101169.00
2023-06-04T16:42:55.540Z,101169.00
2023-06-04T16:45:22.478Z,101169.56
2023-06-04T16:47:50.035Z,101177.78
2023-06-04T16:50:17.595Z,101167.72
2023-06-04T16:52:44.843Z,101183.75
2023-06-04T16:55:12.032Z,101181.13
2023-06-04T16:57:39.137Z,101186.25
2023-06-04T17:00:21.280Z,101193.19
2023-06-04T17:02:53.386Z,101198.69
2023-06-04T17:05:24.343Z,101190.03
2023-06-04T17:07:53.126Z,101189.41
2023-06-04T17:10:20.536Z,101183.97
2023-06-04T17:12:47.457Z,101192.19
2023-06-04T17:15:14.298Z,101187.22
2023-06-04T17:17:41.138Z,101191.16
2023-06-04T17:20:08.473Z,101185.72
2023-06-04T17:22:35.398Z,101183.31
2023-06-04T17:25:02.239Z,101174.84
2023-06-04T17:27:28.983Z,101171.31
2023-06-04T17:29:55.811Z,101176.38
2023-06-04T17:32:22.686Z,101177.19
2023-06-04T17:34:51.221Z,101173.56
2023-06-04T17:37:18.098Z,101171.31
2023-06-04T17:39:45.360Z,101172.69
2023-06-04T17:42:12.134Z,101171.47
2023-06-04T17:44:38.987Z,101172.94
2023-06-04T17:47:06.992Z,101174.84
2023-06-04T17:49:34.157Z,101177.56
2023-06-04T17:52:01.048Z,101175.09
2023-06-04T17:54:27.914Z,101172.59
2023-06-04T17:56:54.672Z,101173.72
2023-06-04T17:59:21.491Z,101173.16
2023-06-04T18:01:48.536Z,101173.81
2023-06-04T18:04:16.671Z,101178.81
2023-06-04T18:06:43.561Z,101178.69
2023-06-04T18:09:10.530Z,101180.34
2023-06-04T18:11:37.339Z,101175.41
2023-06-04T18:14:06.218Z,101162.59
2023-06-04T18:16:33.258Z,101156.69
2023-06-04T18:19:00.092Z,101170.72
2023-06-04T18:21:27.083Z,101168.44
2023-06-04T18:23:54.507Z,101171.25
2023-06-04T18:26:21.793Z,101165.66
2023-06-04T18:28:48.621Z,101169.03
2023-06-04T18:31:15.541Z,101176.34
2023-06-04T18:34:01.354Z,101176.59
2023-06-04T18:36:34.724Z,101179.56
2023-06-04T18:39:10.421Z,101171.34
2023-06-04T18:41:37.365Z,101171.59
2023-06-04T18:44:04.252Z,101176.38
2023-06-04T18:46:31.139Z,101181.16
2023-06-04T18:49:00.256Z,101183.44
2023-06-04T18:51:27.368Z,101191.97
2023-06-04T18:53:54.137Z,101195.72
2023-06-04T18:56:22.313Z,101194.84
2023-06-04T18:58:51.734Z,101196.69
2023-06-04T19:01:18.896Z,101196.69
2023-06-04T19:03:46.342Z,101196.13
2023-06-04T19:06:13.200Z,101199.00
2023-06-04T19:08:40.032Z,101212.78
2023-06-04T19:11:08.402Z,101211.25
2023-06-04T19:13:35.345Z,101216.56
2023-06-04T19:16:02.135Z,101216.25
2023-06-04T19:18:29.038Z,101222.13
2023-06-04T19:20:55.955Z,101222.38
2023-06-04T19:23:22.760Z,101218.59
2023-06-04T19:25:49.574Z,101212.63
2023-06-04T19:28:17.811Z,101221.81
2023-06-04T19:30:45.336Z,101217.69
2023-06-04T19:33:12.991Z,101217.69
2023-06-04T19:35:39.850Z,101212.78
2023-06-04T19:38:06.929Z,101219.50
2023-06-04T19:40:34.767Z,101226.56
2023-06-04T19:43:01.659Z,101229.50
2023-06-04T19:45:28.524Z,101224.91
2023-06-04T19:47:55.419Z,101228.69
2023-06-04T19:50:22.363Z,101237.41
2023-06-04T19:52:49.285Z,101242.56
2023-06-04T19:55:17.566Z,101239.50
2023-06-04T19:57:45.604Z,101239.50
2023-06-04T20:00:12.971Z,101241.06
2023-06-04T20:02:41.586Z,101241.94
2023-06-04T20:05:08.908Z,101247.91
2023-06-04T20:07:35.860Z,101252.41
2023-06-04T20:10:03.228Z,101255.22
2023-06-04T20:12:30.113Z,101256.41
2023-06-04T20:14:56.988Z,101270.19
2023-06-04T20:17:23.930Z,101269.84
2023-06-04T20:19:51.337Z,101266.03
2023-06-04T20:22:18.170Z,101266.88
2023-06-04T20:24:45.017Z,101269.34
2023-06-04T20:27:12.209Z,101264.66
2023-06-04T20:29:39.111Z,101268.44
2023-06-04T20:32:06.407Z,101271.13
2023-06-04T20:34:33.264Z,101282.34
2023-06-04T20:37:04.035Z,101270.91
2023-06-04T20:39:35.283Z,101270.59
2023-06-04T20:42:02.157Z,101268.69
2023-06-04T20:44:29.684Z,101277.41
2023-06-04T20:46:56.913Z,101268.00
2023-06-04T20:49:23.932Z,101271.63
2023-06-04T20:51:50.786Z,101280.25
2023-06-04T20:54:17.617Z,101273.41
2023-06-04T20:56:44.591Z,101276.94
2023-06-04T20:59:11.470Z,101278.34
2023-06-04T21:01:38.365Z,101284.00
2023-06-04T21:04:05.588Z,101282.09
2023-06-04T21:06:32.573Z,101285.66
2023-06-04T21:08:59.456Z,101285.66
2023-06-04T21:11:28.000Z,101296.97
2023-06-04T21:13:54.790Z,101298.34
2023-06-04T21:16:21.579Z,101297.53
2023-06-04T21:18:50.912Z,101294.56
2023-06-04T21:21:17.924Z,101300.84
2023-06-04T21:23:44.975Z,101299.50
2023-06-04T21:26:11.956Z,101291.38
2023-06-04T21:28:38.776Z,101300.34
2023-06-04T21:31:05.771Z,101293.75
2023-06-04T21:33:32.490Z,101291.63
2023-06-04T21:35:59.343Z,101291.63
2023-06-04T21:38:27.502Z,101298.69
2023-06-04T21:40:54.878Z,101295.41
2023-06-04T21:43:21.880Z,101288.94
2023-06-04T21:45:49.122Z,101291.63
2023-06-04T21:48:16.109Z,101288.13
2023-06-04T21:50:43.102Z,101288.59
2023-06-04T21:53:10.236Z,101297.41
2023-06-04T21:55:37.029Z,101290.94
2023-06-04T21:58:04.670Z,101296.34
2023-06-04T22:00:31.568Z,101295.78
2023-06-04T22:02:58.550Z,101296.84
2023-06-04T22:05:25.446Z,101296.84
2023-06-04T22:07:52.302Z,101291.44
2023-06-04T22:10:19.111Z,101303.91
2023-06-04T22:12:45.952Z,101314.84
2023-06-04T22:15:12.862Z,101313.19
2023-06-04T22:17:39.665Z,101306.84
2023-06-04T22:20:07.312Z,101311.53
2023-06-04T22:22:34.102Z,101308.03
2023-06-04T22:25:00.927Z,101316.50
2023-06-04T22:27:27.706Z,101316.50
2023-06-04T22:29:54.650Z,101318.00
2023-06-04T22:32:21.525Z,101321.53
2023-06-04T22:34:48.533Z,101310.94
2023-06-04T22:37:15.914Z,101306.63
2023-06-04T22:39:42.858Z,101305.53
2023-06-04T22:42:09.713Z,101311.19
2023-06-04T22:44:36.637Z,101307.19
2023-06-04T22:47:03.600Z,101316.38
2023-06-04T22:49:30.599Z,101305.44
2023-06-04T22:51:57.969Z,101308.97
2023-06-04T22:54:24.789Z,101303.78
2023-06-04T22:56:51.563Z,101298.63
2023-06-04T22:59:18.477Z,101305.66
2023-06-04T23:01:45.514Z,101308.03
2023-06-04T23:04:13.666Z,101299.66
2023-06-04T23:06:40.519Z,101295.06
2023-06-04T23:09:09.752Z,101308.59
2023-06-04T23:11:36.616Z,101298.63
2023-06-04T23:14:03.462Z,101309.44
2023-06-04T23:16:30.351Z,101306.97
2023-06-04T23:18:57.199Z,101304.28
2023-06-04T23:21:24.332Z,101303.78
2023-06-04T23:23:51.335Z,101311.56
2023-06-04T23:26:18.252Z,101298.91
2023-06-04T23:28:45.000Z,101312.88
2023-06-04T23:31:11.904Z,101306.53
2023-06-04T23:33:38.896Z,101301.50
2023-06-04T23:36:05.852Z,101302.53
2023-06-04T23:38:32.682Z,101300.06
2023-06-04T23:40:59.465Z,101294.66
2023-06-04T23:43:26.280Z,101294.19
2023-06-04T23:45:53.114Z,101297.84
2023-06-04T23:48:19.993Z,101294.53
2023-06-04T23:50:47.250Z,101295.59
2023-06-04T23:53:14.052Z,101294.53
2023-06-04T23:55:41.007Z,101288.88
2023-06-04T23:58:07.864Z,101291.44
